Terminal Aerodrome Forecast
Issued by NWS Upton, NY

Home | Current Version | Previous Version | Text Only | Print | Product List | Glossary On
Versions: 1 2 3 4 5 6 7 8 9 10 11 12 13 14 15 16 17 18 19 20 21 22 23 24 25 26 27 28 29 30 31
000
FTUS41 KOKX 010800 AAA
TAFLGA
TAF AMD
KLGA 010809Z 0108/0206 02012KT P6SM OVC012
     FM011600 02012KT P6SM SCT015 OVC025
     FM011900 03012KT P6SM SCT015 OVC050
     FM020200 02010KT P6SM OVC012=

USA.gov is the U.S. government's official web portal to all federal, state and local government web resources and services.